Terminal Aerodrome Forecast
Issued by NWS Springfield, MO

Home | Current Version | Previous Version | Text Only | Print | Product List | Glossary On
Versions: 1 2 3 4 5 6 7 8 9 10 11 12 13 14 15 16
000
FTUS43 KSGF 261120
TAFSGF
TAF
KSGF 261120Z 2612/2712 17007KT P6SM BKN250
     FM261500 VRB05KT P6SM BKN250
     FM261800 29006KT P6SM BKN050 OVC120
     FM270200 34006KT P6SM SCT025 OVC040=

USA.gov is the U.S. government's official web portal to all federal, state and local government web resources and services.